Time;durP1;ratioP1;P1;durP2;ratioP2;P2;SDS_P1;SDS_P2;PMS_P1;PMS_P2;Temp;Humidity;BMP_temperature;BMP_pressure;BME280_temperature;BME280_humidity;BME280_pressure;Samples;Min_cycle;Max_cycle;Signal;HPM_P1;HPM_P2
2023/02/02 00:01:25;;;;;;;4.97;1.73;;;;;;;2.83;100.00;95864.28;4946585;28;20047;-78
2023/02/02 00:03:52;;;;;;;7.47;1.90;;;;;;;2.86;100.00;95871.66;4942491;28;20515;-78
2023/02/02 00:06:19;;;;;;;7.53;2.50;;;;;;;2.83;100.00;95866.06;4965869;28;20121;-78
2023/02/02 00:08:45;;;;;;;7.90;1.75;;;;;;;2.87;100.00;95864.63;4936365;29;20051;-78
2023/02/02 00:11:11;;;;;;;7.63;1.83;;;;;;;2.83;100.00;95864.28;4948016;28;20062;-78
2023/02/02 00:13:38;;;;;;;9.13;1.73;;;;;;;2.86;100.00;95869.03;4945670;28;20503;-78
2023/02/02 00:16:29;;;;;;;5.60;1.70;;;;;;;2.83;100.00;95861.69;4945817;28;20051;-77
2023/02/02 00:18:57;;;;;;;9.13;2.00;;;;;;;2.78;100.00;95858.91;4958111;28;20102;-78
2023/02/02 00:21:23;;;;;;;3.38;1.50;;;;;;;2.81;100.00;95857.69;4957536;28;20071;-77
2023/02/02 00:23:49;;;;;;;6.95;1.83;;;;;;;2.72;100.00;95860.53;4955695;28;20047;-77
2023/02/02 00:26:15;;;;;;;2.75;1.48;;;;;;;2.72;100.00;95864.94;4932892;29;20054;-78
2023/02/02 00:28:40;;;;;;;7.13;1.92;;;;;;;2.71;100.00;95865.94;4943268;28;20431;-77
2023/02/02 00:31:06;;;;;;;7.25;2.03;;;;;;;2.70;100.00;95866.94;4944461;28;20073;-78
2023/02/02 00:33:32;;;;;;;6.13;1.80;;;;;;;2.71;100.00;95834.75;4957362;28;20046;-78
2023/02/02 00:35:57;;;;;;;7.47;1.50;;;;;;;2.69;100.00;95852.38;4953192;28;20411;-78
2023/02/02 00:38:23;;;;;;;8.32;2.28;;;;;;;2.65;100.00;95859.00;4975496;28;20053;-78
2023/02/02 00:40:48;;;;;;;6.93;1.67;;;;;;;2.68;100.00;95855.97;4954172;28;20039;-78
2023/02/02 00:43:14;;;;;;;5.75;1.63;;;;;;;2.65;100.00;95848.59;4964485;28;20094;-78
2023/02/02 00:45:40;;;;;;;7.43;1.55;;;;;;;2.67;100.00;95851.78;4943560;28;20396;-78
2023/02/02 00:48:06;;;;;;;5.57;2.22;;;;;;;2.65;100.00;95869.41;4963949;28;21789;-78
2023/02/02 00:50:32;;;;;;;9.52;1.90;;;;;;;2.59;100.00;95856.22;4952351;28;20623;-78
2023/02/02 00:52:58;;;;;;;6.15;2.40;;;;;;;2.58;100.00;95870.22;4970881;28;20043;-78
2023/02/02 00:55:24;;;;;;;4.55;1.80;;;;;;;2.57;100.00;95863.44;4949045;28;20054;-78
2023/02/02 00:57:50;;;;;;;7.50;1.65;;;;;;;2.52;100.00;95860.66;4954103;28;20047;-78
2023/02/02 01:00:19;;;;;;;7.40;1.85;;;;;;;2.49;100.00;95855.91;4958091;28;20876;-78
2023/02/02 01:02:45;;;;;;;5.68;1.63;;;;;;;2.47;100.00;95863.13;4965329;28;20043;-78
2023/02/02 01:05:11;;;;;;;7.22;2.05;;;;;;;2.42;100.00;95876.72;4944949;28;20039;-78
2023/02/02 01:07:38;;;;;;;13.23;3.10;;;;;;;2.30;100.00;95872.38;4969884;28;20042;-78
2023/02/02 01:10:05;;;;;;;5.80;1.67;;;;;;;2.23;100.00;95872.44;4951593;28;20095;-78
2023/02/02 01:12:31;;;;;;;6.38;2.55;;;;;;;2.16;100.00;95877.63;4947780;28;20406;-78
2023/02/02 01:14:57;;;;;;;5.68;1.77;;;;;;;2.12;100.00;95876.47;4943711;28;20043;-78
2023/02/02 01:17:22;;;;;;;5.53;2.03;;;;;;;2.09;100.00;95876.88;4951381;28;20039;-77
2023/02/02 01:19:48;;;;;;;11.80;2.25;;;;;;;2.07;100.00;95873.69;4957484;28;20471;-78
2023/02/02 01:22:13;;;;;;;7.88;1.95;;;;;;;2.04;100.00;95879.28;4962713;28;20130;-78
2023/02/02 01:24:39;;;;;;;10.35;1.95;;;;;;;1.97;100.00;95862.94;4932943;28;20039;-78
2023/02/02 01:27:05;;;;;;;8.82;2.08;;;;;;;2.05;100.00;95849.72;4952275;28;20071;-78
2023/02/02 01:29:30;;;;;;;7.50;1.95;;;;;;;2.05;100.00;95860.13;4946641;28;20039;-78
2023/02/02 01:31:56;;;;;;;11.57;1.98;;;;;;;2.09;100.00;95856.09;4947682;28;20049;-78
2023/02/02 01:34:22;;;;;;;5.55;1.77;;;;;;;2.10;100.00;95839.53;4936229;28;20395;-78
2023/02/02 01:36:47;;;;;;;7.78;2.15;;;;;;;2.16;100.00;95851.69;4955331;28;20049;-78
2023/02/02 01:39:13;;;;;;;7.40;2.13;;;;;;;2.22;100.00;95853.44;4964014;28;20066;-78
2023/02/02 01:41:40;;;;;;;8.60;2.30;;;;;;;2.20;100.00;95845.06;4951418;28;20050;-78
2023/02/02 01:44:26;;;;;;;8.27;1.67;;;;;;;2.19;100.00;95835.69;4935219;28;20425;-78
2023/02/02 01:46:51;;;;;;;7.43;2.10;;;;;;;2.27;100.00;95841.63;4934025;28;20574;-80
2023/02/02 01:49:19;;;;;;;7.45;2.05;;;;;;;2.25;100.00;95840.03;4949611;28;20044;-78
2023/02/02 01:51:53;;;;;;;7.18;1.88;;;;;;;2.27;100.00;95844.22;4950152;28;20054;-78
2023/02/02 01:54:32;;;;;;;7.32;2.15;;;;;;;2.32;100.00;95834.03;4944048;28;20078;-77
2023/02/02 01:57:05;;;;;;;11.13;1.92;;;;;;;2.34;100.00;95832.00;4954189;28;20047;-79
2023/02/02 01:59:33;;;;;;;5.50;1.90;;;;;;;2.35;100.00;95825.81;4942876;28;20062;-79
2023/02/02 02:01:59;;;;;;;10.00;2.65;;;;;;;2.39;100.00;95830.38;4947026;28;20047;-79
2023/02/02 02:04:26;;;;;;;6.22;1.80;;;;;;;2.40;100.00;95831.19;4942276;28;20106;-79
2023/02/02 02:06:52;;;;;;;7.53;2.10;;;;;;;2.36;100.00;95819.63;4955183;28;20043;-79
2023/02/02 02:09:18;;;;;;;3.25;1.50;;;;;;;2.41;100.00;95827.56;4956033;28;20490;-80
2023/02/02 02:11:44;;;;;;;6.07;2.20;;;;;;;2.43;100.00;95830.75;4956307;28;20136;-79
2023/02/02 02:17:07;;;;;;;6.25;1.95;;;;;;;2.43;100.00;95861.94;4968423;28;20122;-79
2023/02/02 02:28:55;;;;;;;5.95;2.10;;;;;;;2.41;100.00;95832.75;4944896;28;20043;-78
2023/02/02 02:31:30;;;;;;;7.25;1.88;;;;;;;2.41;100.00;95854.34;4946001;28;20444;-78
2023/02/02 02:34:05;;;;;;;4.65;1.90;;;;;;;2.41;100.00;95837.94;4946127;28;20099;-79
2023/02/02 02:36:42;;;;;;;;;;;;;;;2.43;100.00;95828.16;4960226;28;20039;-79
2023/02/02 02:39:19;;;;;;;7.95;2.30;;;;;;;2.46;100.00;95825.16;4958115;28;20424;-78
2023/02/02 02:41:48;;;;;;;8.00;1.70;;;;;;;2.41;100.00;95819.78;4945369;29;20080;-79
2023/02/02 02:44:17;;;;;;;4.97;1.65;;;;;;;2.47;100.00;95831.94;4963835;28;20039;-78
2023/02/02 02:46:43;;;;;;;6.85;1.95;;;;;;;2.51;100.00;95833.09;4934596;29;20465;-77
2023/02/02 02:49:11;;;;;;;5.50;2.03;;;;;;;2.50;100.00;95826.31;4950067;28;20043;-77
2023/02/02 02:51:49;;;;;;;6.57;1.90;;;;;;;2.51;100.00;95812.31;4964064;28;20515;-78
2023/02/02 02:54:21;;;;;;;9.05;1.90;;;;;;;2.52;100.00;95819.09;4947946;28;20043;-78
2023/02/02 02:57:04;;;;;;;6.68;2.25;;;;;;;2.52;100.00;95813.13;4929727;28;20048;-77
2023/02/02 02:59:52;;;;;;;8.30;2.03;;;;;;;2.46;100.00;95825.16;4951904;28;20062;-77
2023/02/02 03:02:37;;;;;;;6.15;1.95;;;;;;;2.54;100.00;95811.09;4964903;28;20039;-78
2023/02/02 03:05:34;;;;;;;7.70;2.20;;;;;;;2.52;100.00;95824.28;4965034;28;20036;-78
2023/02/02 03:08:25;;;;;;;7.15;1.85;;;;;;;2.52;100.00;95819.09;4953929;28;20043;-78
2023/02/02 03:10:52;;;;;;;4.38;2.17;;;;;;;2.52;100.00;95818.31;4953158;28;20113;-77
2023/02/02 03:13:17;;;;;;;3.85;1.90;;;;;;;2.52;100.00;95816.50;4959983;28;20565;-77
2023/02/02 03:15:44;;;;;;;6.28;1.80;;;;;;;2.56;100.00;95822.88;4956147;28;20051;-77
2023/02/02 03:18:12;;;;;;;6.55;2.08;;;;;;;2.56;100.00;95815.06;4937353;28;20047;-77
2023/02/02 03:20:38;;;;;;;6.75;2.17;;;;;;;2.55;100.00;95821.28;4946903;28;20439;-77
2023/02/02 03:23:04;;;;;;;6.47;2.05;;;;;;;2.52;100.00;95829.50;4939919;28;20059;-77
2023/02/02 03:25:30;;;;;;;9.88;1.80;;;;;;;2.50;100.00;95805.53;4947670;29;20040;-77
2023/02/02 03:27:57;;;;;;;7.07;2.03;;;;;;;2.47;100.00;95821.53;4952199;28;20586;-77
2023/02/02 03:30:23;;;;;;;5.80;2.15;;;;;;;2.51;100.00;95842.69;4964306;28;20051;-77
2023/02/02 03:32:51;;;;;;;5.93;1.77;;;;;;;2.47;100.00;95816.34;4955470;28;20155;-77
2023/02/02 03:35:16;;;;;;;6.97;1.80;;;;;;;2.51;100.00;95843.47;4929955;29;20043;-77
2023/02/02 03:37:42;;;;;;;8.27;2.20;;;;;;;2.34;100.00;95842.38;4932563;29;20047;-77
2023/02/02 03:40:08;;;;;;;9.88;2.63;;;;;;;2.24;100.00;95833.25;4966786;28;20626;-77
2023/02/02 03:42:34;;;;;;;6.80;2.25;;;;;;;2.09;100.00;95837.94;4952199;28;20054;-77
2023/02/02 03:44:59;;;;;;;7.28;2.20;;;;;;;2.00;100.00;95839.19;4951770;28;20066;-77
2023/02/02 03:47:28;;;;;;;10.57;2.55;;;;;;;2.04;100.00;95830.78;4961188;28;20042;-77
2023/02/02 03:49:54;;;;;;;4.53;2.10;;;;;;;2.04;100.00;95842.94;4958151;28;20051;-77
2023/02/02 03:52:20;;;;;;;8.75;2.20;;;;;;;2.04;100.00;95837.75;4974038;28;20415;-77
2023/02/02 03:54:45;;;;;;;8.93;2.65;;;;;;;2.08;100.00;95838.94;4969227;28;20053;-77
2023/02/02 03:57:11;;;;;;;5.20;1.83;;;;;;;2.11;100.00;95828.13;4927118;28;20047;-76
2023/02/02 03:59:36;;;;;;;3.60;1.70;;;;;;;2.16;100.00;95830.91;4961286;28;20477;-76
2023/02/02 04:02:02;;;;;;;7.07;1.75;;;;;;;2.19;100.00;95848.66;4943081;28;20035;-77
2023/02/02 04:04:28;;;;;;;7.60;2.53;;;;;;;2.30;100.00;95851.59;4951271;28;20042;-77
2023/02/02 04:06:53;;;;;;;7.22;2.17;;;;;;;2.29;100.00;95844.84;4956426;28;20066;-77
2023/02/02 04:09:19;;;;;;;5.63;1.50;;;;;;;2.30;100.00;95836.03;4939080;28;20125;-76
2023/02/02 04:11:44;;;;;;;6.47;2.00;;;;;;;2.29;100.00;95834.44;4951053;28;20047;-77
2023/02/02 04:14:10;;;;;;;5.88;1.85;;;;;;;2.34;100.00;95847.59;4951294;28;20069;-77
2023/02/02 04:16:36;;;;;;;3.88;1.70;;;;;;;2.35;100.00;95838.78;4966581;28;20046;-77
2023/02/02 04:19:03;;;;;;;4.93;2.40;;;;;;;2.36;100.00;95835.19;4944496;28;20043;-77
2023/02/02 04:21:29;;;;;;;6.35;1.88;;;;;;;2.42;100.00;95845.53;4945766;28;20093;-77
2023/02/02 04:23:55;;;;;;;4.13;1.92;;;;;;;2.47;100.00;95852.72;4929813;28;20043;-77
2023/02/02 04:26:24;;;;;;;6.63;1.92;;;;;;;2.55;100.00;95855.03;4940750;29;20074;-77
2023/02/02 04:28:50;;;;;;;4.45;1.50;;;;;;;2.52;100.00;95845.09;4943326;28;20460;-77
2023/02/02 04:31:16;;;;;;;5.82;2.45;;;;;;;2.55;100.00;95855.03;4963395;28;20039;-78
2023/02/02 04:33:41;;;;;;;7.50;1.70;;;;;;;2.58;100.00;95854.63;4927433;29;20050;-77
2023/02/02 04:36:07;;;;;;;9.73;1.85;;;;;;;2.51;100.00;95843.47;4958929;28;20066;-77
2023/02/02 04:38:33;;;;;;;5.75;1.58;;;;;;;2.53;100.00;95859.66;4954345;28;20082;-77
2023/02/02 04:41:05;;;;;;;6.63;1.80;;;;;;;2.55;100.00;95875.84;4943206;28;20047;-77
2023/02/02 04:43:33;;;;;;;7.65;1.98;;;;;;;2.41;100.00;95862.16;4960201;28;20035;-77
2023/02/02 04:45:58;;;;;;;7.65;2.00;;;;;;;2.40;100.00;95852.75;4960735;28;20078;-77
2023/02/02 04:48:24;;;;;;;4.20;1.88;;;;;;;2.36;100.00;95840.41;4948265;28;20039;-76
2023/02/02 04:50:49;;;;;;;8.23;2.30;;;;;;;2.41;100.00;95838.75;4957147;28;20091;-77
2023/02/02 04:53:15;;;;;;;9.10;2.05;;;;;;;2.48;100.00;95843.91;4952814;28;20118;-77
2023/02/02 04:55:40;;;;;;;6.85;2.00;;;;;;;2.48;100.00;95853.50;4965463;28;20101;-77
2023/02/02 04:58:06;;;;;;;4.63;1.73;;;;;;;2.49;100.00;95850.69;4950425;28;20051;-77
2023/02/02 05:00:31;;;;;;;6.10;1.80;;;;;;;2.59;100.00;95838.03;4945965;28;20460;-78
2023/02/02 05:02:57;;;;;;;6.13;1.60;;;;;;;2.65;100.00;95838.22;4945577;28;20392;-78
2023/02/02 05:05:22;;;;;;;4.80;1.60;;;;;;;2.71;100.00;95847.75;4934015;29;20663;-78
2023/02/02 05:07:48;;;;;;;4.63;1.98;;;;;;;2.70;100.00;95841.78;4936200;28;20448;-78
2023/02/02 05:10:13;;;;;;;4.35;1.98;;;;;;;2.71;100.00;95847.75;4945372;28;20039;-77
2023/02/02 05:12:39;;;;;;;15.35;2.45;;;;;;;2.73;100.00;95876.91;4958260;28;20046;-78
2023/02/02 05:15:05;;;;;;;5.70;1.60;;;;;;;2.70;100.00;95872.16;4933721;28;20051;-77
2023/02/02 05:17:32;;;;;;;6.53;2.03;;;;;;;2.70;100.00;95872.16;4965191;28;20040;-77
2023/02/02 05:19:57;;;;;;;4.47;2.10;;;;;;;2.69;100.00;95854.97;4946708;28;20097;-78
2023/02/02 05:22:23;;;;;;;8.32;2.28;;;;;;;2.68;100.00;95842.97;4930744;28;20098;-77
2023/02/02 05:24:48;;;;;;;5.18;1.75;;;;;;;2.68;100.00;95868.97;4930840;28;20047;-78
2023/02/02 05:27:14;;;;;;;8.93;2.00;;;;;;;2.70;100.00;95877.34;4964117;28;20406;-77
2023/02/02 05:29:39;;;;;;;7.50;2.00;;;;;;;2.67;100.00;95877.75;4949030;28;20507;-77
2023/02/02 05:32:05;;;;;;;6.22;1.70;;;;;;;2.66;100.00;95870.97;4937847;28;20126;-78
2023/02/02 05:34:30;;;;;;;11.90;2.20;;;;;;;2.63;100.00;95876.59;4945035;28;20043;-78
2023/02/02 05:36:56;;;;;;;4.35;1.95;;;;;;;2.62;100.00;95864.63;4955078;28;20054;-79
2023/02/02 05:39:21;;;;;;;5.22;1.85;;;;;;;2.51;100.00;95882.44;4954418;28;20035;-78
2023/02/02 05:41:47;;;;;;;10.40;3.10;;;;;;;2.50;100.00;95878.28;4954817;28;20039;-78
2023/02/02 05:44:13;;;;;;;7.00;1.70;;;;;;;2.56;100.00;95903.41;4952961;28;20047;-78
2023/02/02 05:46:40;;;;;;;4.00;2.00;;;;;;;2.50;100.00;95860.09;4963087;28;20039;-78
2023/02/02 05:49:05;;;;;;;7.63;2.05;;;;;;;2.46;100.00;95871.91;4951887;28;20463;-77
2023/02/02 05:51:36;;;;;;;6.95;1.80;;;;;;;2.40;100.00;95888.34;4929375;29;20043;-77
2023/02/02 05:54:01;;;;;;;3.70;1.90;;;;;;;2.34;100.00;95863.16;4956643;28;20099;-77
2023/02/02 05:56:27;;;;;;;4.90;1.95;;;;;;;2.31;100.00;95877.34;4963473;28;20043;-77
2023/02/02 05:58:52;;;;;;;4.57;1.80;;;;;;;2.38;100.00;95874.75;4946005;28;20400;-77
2023/02/02 06:01:20;;;;;;;9.18;1.90;;;;;;;2.33;100.00;95851.19;4940658;29;20487;-77
2023/02/02 06:03:46;;;;;;;2.88;1.55;;;;;;;2.41;100.00;95858.72;4967454;28;20170;-78
2023/02/02 06:06:12;;;;;;;4.97;1.83;;;;;;;2.40;100.00;95867.56;4962225;28;20534;-77
2023/02/02 06:08:37;;;;;;;5.20;1.83;;;;;;;2.38;100.00;95880.72;4954800;28;20090;-78
2023/02/02 06:11:15;;;;;;;5.13;1.50;;;;;;;2.44;100.00;95881.69;4940228;28;20054;-77
2023/02/02 06:13:40;;;;;;;6.78;1.70;;;;;;;2.56;100.00;95874.84;4954494;28;20138;-77
2023/02/02 06:16:07;;;;;;;5.72;1.80;;;;;;;2.62;100.00;95888.00;4961769;28;21659;-78
2023/02/02 06:18:33;;;;;;;7.10;1.58;;;;;;;2.56;100.00;95877.44;4952867;28;20071;-77
2023/02/02 06:20:59;;;;;;;5.45;2.03;;;;;;;2.50;100.00;95883.47;4929998;28;20044;-77
2023/02/02 06:23:26;;;;;;;4.65;2.28;;;;;;;2.49;100.00;95881.88;4939995;28;20043;-76
2023/02/02 06:25:52;;;;;;;6.13;1.50;;;;;;;2.55;100.00;95881.03;4924585;28;20043;-77
2023/02/02 06:28:17;;;;;;;3.42;1.70;;;;;;;2.53;100.00;95880.47;4935855;29;20145;-77
2023/02/02 06:30:43;;;;;;;9.57;2.35;;;;;;;2.59;100.00;95877.00;4960420;28;20058;-77
2023/02/02 06:33:08;;;;;;;6.60;1.83;;;;;;;2.56;100.00;95872.25;4956783;28;20576;-77
2023/02/02 06:35:34;;;;;;;3.20;1.77;;;;;;;2.59;100.00;95874.41;4943819;29;20048;-78
2023/02/02 06:38:00;;;;;;;4.55;1.75;;;;;;;2.66;100.00;95876.97;4942993;28;20035;-77
2023/02/02 06:40:26;;;;;;;8.82;2.13;;;;;;;2.60;100.00;95886.41;4924348;29;20087;-77
2023/02/02 06:43:00;;;;;;;6.88;2.03;;;;;;;2.61;100.00;95874.19;4950343;28;20170;-78
2023/02/02 06:45:26;;;;;;;11.77;2.47;;;;;;;2.66;100.00;95881.38;4968387;28;20043;-77
2023/02/02 06:47:53;;;;;;;4.70;1.80;;;;;;;2.63;100.00;95886.97;4944179;28;20290;-77
2023/02/02 06:50:18;;;;;;;4.50;1.80;;;;;;;2.67;100.00;95883.78;4952551;28;20481;-77
2023/02/02 06:52:48;;;;;;;3.35;1.45;;;;;;;2.66;100.00;95881.38;4950838;28;20036;-77
2023/02/02 06:55:14;;;;;;;7.97;2.15;;;;;;;2.63;100.00;95884.38;4946708;28;20066;-77
2023/02/02 06:57:39;;;;;;;6.75;1.70;;;;;;;2.62;100.00;95895.81;4962084;28;20039;-77
2023/02/02 07:00:06;;;;;;;6.38;1.85;;;;;;;2.65;100.00;95911.75;4949264;28;20071;-78
2023/02/02 07:02:31;;;;;;;5.25;1.83;;;;;;;2.66;100.00;95928.94;4964267;28;20070;-79
2023/02/02 07:04:57;;;;;;;8.85;1.95;;;;;;;2.67;100.00;95919.34;4944458;28;20047;-74
2023/02/02 07:07:22;;;;;;;5.15;1.95;;;;;;;2.73;100.00;95918.50;4947871;28;20047;-73
2023/02/02 07:09:48;;;;;;;5.95;1.80;;;;;;;2.71;100.00;95910.13;4951220;28;20125;-78
2023/02/02 07:12:13;;;;;;;5.88;2.00;;;;;;;2.65;100.00;95921.38;4958698;28;20039;-80
2023/02/02 07:14:39;;;;;;;7.88;1.90;;;;;;;2.67;100.00;95903.75;4957184;28;20047;-78
2023/02/02 07:17:04;;;;;;;6.53;1.88;;;;;;;2.68;100.00;95921.72;4957067;28;20050;-78
2023/02/02 07:19:30;;;;;;;7.07;2.40;;;;;;;2.66;100.00;95928.13;4956104;28;20070;-76
2023/02/02 07:21:56;;;;;;;7.68;2.00;;;;;;;2.68;100.00;95923.53;4936783;28;20042;-78
2023/02/02 07:24:21;;;;;;;5.75;2.25;;;;;;;2.73;100.00;95924.50;4958476;28;20138;-77
2023/02/02 07:26:47;;;;;;;7.57;2.17;;;;;;;2.72;100.00;95932.53;4939157;28;20575;-78
2023/02/02 07:29:13;;;;;;;5.13;1.90;;;;;;;2.77;100.00;95930.88;4951039;28;20071;-77
2023/02/02 07:31:39;;;;;;;5.82;1.88;;;;;;;2.81;100.00;95930.47;4941200;29;20043;-77
2023/02/02 07:34:05;;;;;;;7.80;2.10;;;;;;;2.77;100.00;95930.06;4966131;28;20127;-78
2023/02/02 07:36:31;;;;;;;6.05;2.05;;;;;;;2.76;100.00;95928.50;4947914;28;20051;-78
2023/02/02 07:38:57;;;;;;;9.13;2.70;;;;;;;2.79;100.00;95954.06;4962444;28;20180;-79
2023/02/02 07:41:23;;;;;;;5.47;2.35;;;;;;;2.80;100.00;95955.66;4949216;28;20418;-83
2023/02/02 07:43:49;;;;;;;4.15;2.42;;;;;;;2.80;100.00;95950.44;4946921;28;20074;-79
2023/02/02 07:46:16;;;;;;;4.50;2.28;;;;;;;2.77;100.00;95956.06;4943032;28;20486;-80
2023/02/02 07:48:42;;;;;;;6.00;2.17;;;;;;;2.74;100.00;95966.88;4934780;28;20055;-78
2023/02/02 07:51:11;;;;;;;4.40;2.05;;;;;;;2.78;100.00;95949.88;4951918;28;20462;-81
2023/02/02 07:53:37;;;;;;;9.57;2.30;;;;;;;2.77;100.00;95966.47;4968884;28;20043;-81
2023/02/02 07:56:07;;;;;;;7.55;2.00;;;;;;;2.77;100.00;95966.47;4928742;28;20051;-79
2023/02/02 07:58:33;;;;;;;6.63;2.10;;;;;;;2.75;100.00;95968.50;4955244;28;20043;-80
2023/02/02 08:01:00;;;;;;;6.93;2.15;;;;;;;-146.47;100.00;65468.63;4952731;28;20114;-80
2023/02/02 08:03:26;;;;;;;6.07;2.50;;;;;;;-146.47;100.00;65468.63;4952486;28;20054;-79
2023/02/02 08:05:51;;;;;;;9.90;2.53;;;;;;;-146.47;100.00;65468.63;4946332;28;20039;-81
2023/02/02 08:08:17;;;;;;;6.53;1.98;;;;;;;-146.47;100.00;65468.63;4956996;28;20044;-79
2023/02/02 08:10:50;;;;;;;4.93;2.35;;;;;;;-146.47;100.00;65468.63;4942053;28;20040;-81
2023/02/02 08:13:15;;;;;;;4.20;2.17;;;;;;;-146.47;100.00;65468.63;4934819;28;20445;-77
2023/02/02 08:15:41;;;;;;;8.75;2.53;;;;;;;-146.47;100.00;65468.63;4950733;28;20043;-76
2023/02/02 08:18:06;;;;;;;9.82;2.55;;;;;;;-146.47;100.00;65468.63;4953541;28;20082;-80
2023/02/02 08:20:33;;;;;;;11.68;2.95;;;;;;;-146.47;100.00;65468.63;4950455;28;20049;-78
2023/02/02 08:22:58;;;;;;;7.47;1.92;;;;;;;-146.47;100.00;65468.63;4954269;28;20050;-79
2023/02/02 08:25:24;;;;;;;4.78;1.90;;;;;;;-146.47;100.00;65468.63;4943992;28;20042;-80
2023/02/02 08:27:54;;;;;;;4.25;1.80;;;;;;;-146.47;100.00;65468.63;4949955;28;20051;-78
2023/02/02 08:30:20;;;;;;;6.03;2.40;;;;;;;-146.47;100.00;65468.63;4952445;28;20122;-78
2023/02/02 08:32:45;;;;;;;5.15;2.38;;;;;;;-146.47;100.00;65468.63;4932658;29;20039;-80
2023/02/02 08:35:11;;;;;;;5.85;2.10;;;;;;;-146.47;100.00;65468.63;4948396;28;20066;-82
2023/02/02 08:37:37;;;;;;;6.47;2.40;;;;;;;-146.47;100.00;65468.63;4949132;28;20407;-82
2023/02/02 08:40:03;;;;;;;9.05;2.42;;;;;;;-146.47;100.00;65468.63;4946034;28;20051;-79
2023/02/02 08:42:29;;;;;;;7.05;2.60;;;;;;;-146.47;100.00;65468.63;4945446;28;20035;-79
2023/02/02 08:44:54;;;;;;;5.88;2.33;;;;;;;-146.47;100.00;65468.63;4941376;28;20058;-81
2023/02/02 08:47:20;;;;;;;10.90;2.83;;;;;;;-146.47;100.00;65468.63;4945645;28;20098;-80
2023/02/02 08:49:45;;;;;;;9.10;2.60;;;;;;;-146.47;100.00;65468.63;4939185;29;20098;-80
2023/02/02 08:52:11;;;;;;;3.67;1.90;;;;;;;-146.47;100.00;65468.63;4950036;28;20090;-79
2023/02/02 08:54:37;;;;;;;5.40;2.33;;;;;;;-146.47;100.00;65468.63;4933380;29;20043;-79
2023/02/02 08:57:02;;;;;;;8.77;2.38;;;;;;;-146.47;100.00;65468.63;4937809;28;20047;-79
2023/02/02 08:59:28;;;;;;;5.90;1.90;;;;;;;-146.47;100.00;65468.63;4952113;28;20043;-77
2023/02/02 09:01:53;;;;;;;6.82;2.45;;;;;;;-146.47;100.00;65468.63;4944054;28;20126;-79
2023/02/02 09:04:19;;;;;;;9.48;2.40;;;;;;;-146.47;100.00;65468.63;4937199;28;20530;-76
2023/02/02 09:06:45;;;;;;;6.10;2.60;;;;;;;-146.47;100.00;65468.63;4942946;28;20143;-78
2023/02/02 09:09:14;;;;;;;6.63;2.35;;;;;;;-146.47;100.00;65468.63;4943767;28;20035;-76
2023/02/02 09:11:41;;;;;;;6.80;2.53;;;;;;;-146.47;100.00;65468.63;4950300;28;20058;-76
2023/02/02 09:14:09;;;;;;;8.40;2.78;;;;;;;-146.47;100.00;65468.63;4943790;28;20140;-76
2023/02/02 09:16:35;;;;;;;7.10;2.28;;;;;;;-146.47;100.00;65468.63;4955907;28;20042;-76
2023/02/02 09:19:01;;;;;;;10.98;2.58;;;;;;;-146.47;100.00;65468.63;4951712;28;20040;-79
2023/02/02 09:21:26;;;;;;;6.00;2.33;;;;;;;-146.47;100.00;65468.63;4954149;28;20459;-78
2023/02/02 09:23:53;;;;;;;4.80;2.30;;;;;;;-146.47;100.00;65468.63;4946374;28;20048;-81
2023/02/02 09:26:24;;;;;;;5.43;2.20;;;;;;;-146.47;100.00;65468.63;4957529;28;20418;-79
2023/02/02 09:28:55;;;;;;;6.88;2.25;;;;;;;-146.47;100.00;65468.63;4931584;28;20044;-78
2023/02/02 09:31:21;;;;;;;6.68;2.60;;;;;;;-146.47;100.00;65468.63;4932606;28;20498;-79
2023/02/02 09:33:47;;;;;;;8.02;2.30;;;;;;;-146.47;100.00;65468.63;4945709;28;20048;-83
2023/02/02 09:36:32;;;;;;;7.30;2.45;;;;;;;-146.47;100.00;65468.63;4945933;28;20047;-79
2023/02/02 09:38:58;;;;;;;8.40;2.15;;;;;;;-146.47;100.00;65468.63;4953119;28;20499;-78
2023/02/02 09:41:35;;;;;;;5.22;2.00;;;;;;;-146.47;100.00;65468.63;4958093;28;20043;-78
2023/02/02 09:44:48;;;;;;;6.85;2.55;;;;;;;-146.47;100.00;65468.63;4950772;28;20119;-81
2023/02/02 09:47:20;;;;;;;9.27;2.63;;;;;;;-146.47;100.00;65468.63;4945544;28;20044;-80
2023/02/02 09:49:49;;;;;;;4.93;1.90;;;;;;;-146.47;100.00;65468.63;4953348;28;20043;-79
2023/02/02 09:52:22;;;;;;;9.07;2.50;;;;;;;-146.47;100.00;65468.63;4943528;28;20086;-79
2023/02/02 09:54:50;;;;;;;5.22;2.47;;;;;;;-146.47;100.00;65468.63;4956292;28;20047;-79
2023/02/02 09:57:31;;;;;;;7.22;2.15;;;;;;;-146.47;100.00;65468.63;4929771;29;20250;-79
2023/02/02 09:59:57;;;;;;;5.25;2.20;;;;;;;-146.47;100.00;65468.63;4948091;28;20047;-78
2023/02/02 10:02:31;;;;;;;6.80;2.78;;;;;;;-146.47;100.00;65468.63;4944939;28;20111;-80
2023/02/02 10:05:07;;;;;;;6.55;2.45;;;;;;;-146.47;100.00;65468.63;4938657;28;20068;-80
2023/02/02 10:07:39;;;;;;;4.32;2.20;;;;;;;-146.47;100.00;65468.63;4949422;28;20059;-78
2023/02/02 10:10:17;;;;;;;8.13;2.42;;;;;;;-146.47;100.00;65468.63;4930533;28;20094;-79
2023/02/02 10:12:53;;;;;;;8.65;2.78;;;;;;;-146.47;100.00;65468.63;4943908;28;20499;-79
2023/02/02 10:15:32;;;;;;;8.48;2.30;;;;;;;-146.47;100.00;65468.63;4935009;29;20058;-81
2023/02/02 10:18:07;;;;;;;9.02;2.47;;;;;;;-146.47;100.00;65468.63;4944391;28;20050;-79
2023/02/02 10:20:43;;;;;;;7.53;2.00;;;;;;;-146.47;100.00;65468.63;4933080;29;20040;-77
2023/02/02 10:23:39;;;;;;;9.48;2.88;;;;;;;-146.47;100.00;65468.63;4945761;28;20042;-79
2023/02/02 10:26:13;;;;;;;8.15;2.40;;;;;;;-146.47;100.00;65468.63;4949649;28;20385;-79
2023/02/02 10:28:42;;;;;;;5.53;2.33;;;;;;;-146.47;100.00;65468.63;4948337;28;20035;-78
2023/02/02 10:31:21;;;;;;;8.13;2.60;;;;;;;-146.47;100.00;65468.63;4935078;28;20113;-77
2023/02/02 10:34:01;;;;;;;4.85;2.15;;;;;;;-146.47;100.00;65468.63;4953328;28;20035;-78
2023/02/02 10:36:52;;;;;;;6.97;2.22;;;;;;;-146.47;100.00;65468.63;4953888;28;20337;-79
2023/02/02 10:39:30;;;;;;;6.93;2.40;;;;;;;-146.47;100.00;65468.63;4931187;28;20055;-78
2023/02/02 10:42:17;;;;;;;4.35;2.17;;;;;;;-146.47;100.00;65468.63;4946671;28;20102;-79
2023/02/02 10:44:49;;;;;;;8.45;2.28;;;;;;;-146.47;100.00;65468.63;4938150;28;20048;-79
2023/02/02 10:47:32;;;;;;;6.13;2.60;;;;;;;-146.47;100.00;65468.63;4954793;28;20103;-79
2023/02/02 10:50:18;;;;;;;4.35;1.80;;;;;;;-146.47;100.00;65468.63;4937400;28;20044;-79
2023/02/02 10:52:51;;;;;;;5.50;2.20;;;;;;;-146.47;100.00;65468.63;4957660;28;20050;-80
2023/02/02 10:55:50;;;;;;;5.07;2.10;;;;;;;-146.47;100.00;65468.63;4959833;28;20050;-82
2023/02/02 10:58:38;;;;;;;8.38;2.13;;;;;;;-146.47;100.00;65468.63;4961835;28;20039;-81
2023/02/02 11:01:10;;;;;;;4.93;2.15;;;;;;;-146.47;100.00;65468.63;4973714;28;20066;-83
2023/02/02 11:03:37;;;;;;;5.25;2.30;;;;;;;-146.47;100.00;65468.63;4964623;28;20034;-83
2023/02/02 11:08:55;;;;;;;8.75;2.72;;;;;;;-146.47;100.00;65468.63;4978616;28;20091;-77
2023/02/02 11:11:23;;;;;;;6.25;2.33;;;;;;;-146.47;100.00;65468.63;4986999;28;20058;-80
2023/02/02 11:13:52;;;;;;;7.22;2.40;;;;;;;-146.47;100.00;65468.63;4964236;28;20032;-75
2023/02/02 11:16:20;;;;;;;8.45;2.20;;;;;;;-146.47;100.00;65468.63;4993934;28;20054;-77
2023/02/02 11:18:46;;;;;;;5.20;1.88;;;;;;;-146.47;100.00;65468.63;4972727;28;20143;-78
2023/02/02 11:21:32;;;;;;;6.47;1.83;;;;;;;-146.47;100.00;65468.63;4970052;28;20055;-78
2023/02/02 11:23:59;;;;;;;9.60;2.40;;;;;;;-146.47;100.00;65468.63;4949548;28;20124;-80
2023/02/02 11:26:38;;;;;;;4.43;1.90;;;;;;;-146.47;100.00;65468.63;4943514;28;20047;-79
2023/02/02 11:29:04;;;;;;;7.80;2.30;;;;;;;-146.47;100.00;65468.63;4950602;28;20075;-78
2023/02/02 11:31:35;;;;;;;6.75;2.10;;;;;;;-146.47;100.00;65468.63;4949587;28;20035;-78
2023/02/02 11:34:16;;;;;;;6.00;2.30;;;;;;;-146.47;100.00;65468.63;4958620;28;20405;-79
2023/02/02 11:37:12;;;;;;;5.57;2.10;;;;;;;-146.47;100.00;65468.63;4950337;28;20051;-78
2023/02/02 11:39:42;;;;;;;4.65;1.92;;;;;;;-146.47;100.00;65468.63;4940325;28;20867;-78
2023/02/02 11:42:24;;;;;;;5.55;1.90;;;;;;;-146.47;100.00;65468.63;4928662;28;20047;-80
2023/02/02 11:44:56;;;;;;;4.60;1.80;;;;;;;-146.47;100.00;65468.63;4948994;28;20043;-79
2023/02/02 11:47:32;;;;;;;7.60;2.20;;;;;;;-146.47;100.00;65468.63;4946443;28;20042;-80